createdAt,value
2022-08-04T22:07:50.372Z,1013.28
2022-08-04T22:24:00.189Z,1013.62
2022-08-04T22:24:54.179Z,1013.61
2022-08-04T22:25:56.011Z,1013.67
2022-08-04T22:26:54.165Z,1013.69
2022-08-04T22:27:55.391Z,1013.78
2022-08-04T22:28:54.130Z,1013.85
2022-08-04T22:29:54.108Z,1013.78
2022-08-04T22:30:54.125Z,1013.77
2022-08-04T22:31:56.900Z,1013.83
2022-08-04T22:32:54.125Z,1013.88
2022-08-04T22:33:56.123Z,1013.83
2022-08-04T22:34:54.103Z,1013.76
2022-08-04T22:35:54.059Z,1013.63
2022-08-04T22:36:54.055Z,1013.55
2022-08-04T22:38:06.059Z,1013.44
2022-08-04T22:39:04.402Z,1013.27
2022-08-04T22:39:56.903Z,1013.18
2022-08-04T22:40:53.950Z,1013.20
2022-08-04T22:42:04.208Z,1013.12
2022-08-04T22:42:54.968Z,1013.03
2022-08-04T22:43:55.039Z,1012.97
2022-08-04T22:44:53.932Z,1012.89
2022-08-04T22:45:53.894Z,1012.79
2022-08-04T22:46:53.964Z,1012.75
2022-08-04T22:47:53.878Z,1012.70
2022-08-04T22:48:53.860Z,1012.60
2022-08-04T22:50:13.379Z,1012.51
2022-08-04T22:50:54.843Z,1012.38
2022-08-04T22:51:53.819Z,1012.28
2022-08-04T22:52:56.193Z,1012.19
2022-08-04T22:53:53.786Z,1012.17
2022-08-04T22:54:53.751Z,1012.06
2022-08-04T22:56:07.143Z,1012.05
2022-08-04T22:56:54.747Z,1012.02
2022-08-04T22:58:05.405Z,1012.00
2022-08-04T22:58:54.727Z,1011.90
2022-08-04T22:59:53.694Z,1011.82
2022-08-04T23:00:54.097Z,1011.74
2022-08-04T23:02:00.548Z,1011.68
2022-08-04T23:02:54.702Z,1011.60
2022-08-04T23:03:56.110Z,1011.60
2022-08-04T23:04:54.226Z,1011.59
2022-08-04T23:05:53.629Z,1011.60
2022-08-04T23:06:53.643Z,1011.63
2022-08-04T23:07:53.651Z,1011.56
2022-08-04T23:08:53.624Z,1011.46
2022-08-04T23:09:53.596Z,1011.47
2022-08-04T23:10:53.570Z,1011.47
2022-08-04T23:12:08.643Z,1011.50
2022-08-04T23:12:54.519Z,1011.48
2022-08-04T23:13:53.592Z,1011.51
2022-08-04T23:14:53.506Z,1011.51
2022-08-04T23:15:53.529Z,1011.51
2022-08-04T23:16:53.496Z,1011.55
2022-08-04T23:17:53.514Z,1011.52
2022-08-04T23:18:53.480Z,1011.58
2022-08-04T23:19:55.490Z,1011.54
2022-08-04T23:20:54.487Z,1011.56
2022-08-04T23:22:01.864Z,1011.55
2022-08-04T23:22:55.937Z,1011.54
2022-08-04T23:24:02.452Z,1011.53
2022-08-04T23:24:54.386Z,1011.54
2022-08-04T23:26:08.621Z,1011.49
2022-08-04T23:26:54.384Z,1011.39
2022-08-04T23:27:53.322Z,1011.43
2022-08-04T23:28:53.315Z,1011.43
2022-08-04T23:29:54.775Z,1011.46
2022-08-04T23:30:53.291Z,1011.48
2022-08-04T23:31:59.189Z,1011.47
2022-08-04T23:32:54.303Z,1011.49
2022-08-04T23:33:53.265Z,1011.50
2022-08-04T23:34:53.266Z,1011.47
2022-08-04T23:35:58.144Z,1011.45
2022-08-04T23:36:54.210Z,1011.44
2022-08-04T23:37:57.563Z,1011.41
2022-08-04T23:38:53.215Z,1011.43
2022-08-04T23:40:15.502Z,1011.47
2022-08-04T23:40:54.223Z,1011.44
2022-08-04T23:41:55.054Z,1011.45
2022-08-04T23:42:53.122Z,1011.43
2022-08-04T23:43:55.271Z,1011.44
2022-08-04T23:44:53.117Z,1011.45
2022-08-04T23:46:03.913Z,1011.49
2022-08-04T23:46:54.085Z,1011.45
2022-08-04T23:48:18.344Z,1011.38
2022-08-04T23:48:54.038Z,1011.37
2022-08-04T23:49:53.073Z,1011.33
2022-08-04T23:50:54.084Z,1011.29
2022-08-04T23:51:53.008Z,1011.27
2022-08-04T23:52:52.998Z,1011.26
2022-08-04T23:54:02.253Z,1011.28
2022-08-04T23:54:53.990Z,1011.28
2022-08-04T23:55:52.966Z,1011.26
2022-08-04T23:56:52.947Z,1011.29
2022-08-04T23:58:06.467Z,1011.30
2022-08-04T23:58:53.905Z,1011.36
2022-08-04T23:59:54.170Z,1011.36
